sensor_id;sensor_type;location;lat;lon;timestamp;temperature;humidity
35085;SHT85;21267;51.032;6.998;2022-12-29T00:01:42;9.91;94.19
35085;SHT85;21267;51.032;6.998;2022-12-29T00:04:12;9.94;94.44
35085;SHT85;21267;51.032;6.998;2022-12-29T00:06:42;9.84;94.78
35085;SHT85;21267;51.032;6.998;2022-12-29T00:09:11;9.81;95.17
35085;SHT85;21267;51.032;6.998;2022-12-29T00:11:38;9.85;95.05
35085;SHT85;21267;51.032;6.998;2022-12-29T00:14:05;9.78;95.35
35085;SHT85;21267;51.032;6.998;2022-12-29T00:16:51;9.78;95.56
35085;SHT85;21267;51.032;6.998;2022-12-29T00:19:18;9.82;95.48
35085;SHT85;21267;51.032;6.998;2022-12-29T00:22:03;9.84;95.45
35085;SHT85;21267;51.032;6.998;2022-12-29T00:24:49;9.85;95.41
35085;SHT85;21267;51.032;6.998;2022-12-29T00:27:28;9.92;95.35
35085;SHT85;21267;51.032;6.998;2022-12-29T00:30:16;10.06;94.76
35085;SHT85;21267;51.032;6.998;2022-12-29T00:33:16;10.11;94.43
35085;SHT85;21267;51.032;6.998;2022-12-29T00:36:05;10.12;94.47
35085;SHT85;21267;51.032;6.998;2022-12-29T00:38:37;10.22;94.20
35085;SHT85;21267;51.032;6.998;2022-12-29T00:41:23;10.23;94.06
35085;SHT85;21267;51.032;6.998;2022-12-29T00:44:11;10.28;94.01
35085;SHT85;21267;51.032;6.998;2022-12-29T00:46:40;10.29;93.95
35085;SHT85;21267;51.032;6.998;2022-12-29T00:49:11;10.42;93.56
35085;SHT85;21267;51.032;6.998;2022-12-29T00:52:05;10.49;92.97
35085;SHT85;21267;51.032;6.998;2022-12-29T00:54:35;10.53;92.85
35085;SHT85;21267;51.032;6.998;2022-12-29T01:01:39;10.39;93.57
35085;SHT85;21267;51.032;6.998;2022-12-29T01:04:06;10.39;93.67
35085;SHT85;21267;51.032;6.998;2022-12-29T01:06:35;10.40;93.63
35085;SHT85;21267;51.032;6.998;2022-12-29T01:09:03;10.38;93.93
35085;SHT85;21267;51.032;6.998;2022-12-29T01:11:48;10.38;93.85
35085;SHT85;21267;51.032;6.998;2022-12-29T01:14:16;10.40;93.89
35085;SHT85;21267;51.032;6.998;2022-12-29T01:16:43;10.42;93.85
35085;SHT85;21267;51.032;6.998;2022-12-29T01:19:10;10.40;94.09
35085;SHT85;21267;51.032;6.998;2022-12-29T01:21:37;10.42;94.08
35085;SHT85;21267;51.032;6.998;2022-12-29T01:24:04;10.60;93.31
35085;SHT85;21267;51.032;6.998;2022-12-29T01:26:31;10.49;93.56
35085;SHT85;21267;51.032;6.998;2022-12-29T01:28:57;10.70;92.59
35085;SHT85;21267;51.032;6.998;2022-12-29T01:31:24;10.77;92.48
35085;SHT85;21267;51.032;6.998;2022-12-29T01:33:51;10.87;92.06
35085;SHT85;21267;51.032;6.998;2022-12-29T01:36:18;10.90;91.74
35085;SHT85;21267;51.032;6.998;2022-12-29T01:38:51;10.81;92.08
35085;SHT85;21267;51.032;6.998;2022-12-29T01:41:18;10.98;91.47
35085;SHT85;21267;51.032;6.998;2022-12-29T01:43:48;10.90;91.73
35085;SHT85;21267;51.032;6.998;2022-12-29T01:49:05;10.83;92.18
35085;SHT85;21267;51.032;6.998;2022-12-29T01:52:01;10.85;92.10
35085;SHT85;21267;51.032;6.998;2022-12-29T01:54:34;10.92;91.28
35085;SHT85;21267;51.032;6.998;2022-12-29T01:57:06;11.41;88.28
35085;SHT85;21267;51.032;6.998;2022-12-29T01:59:43;11.46;87.49
35085;SHT85;21267;51.032;6.998;2022-12-29T02:02:10;11.73;85.89
35085;SHT85;21267;51.032;6.998;2022-12-29T02:04:40;11.82;84.65
35085;SHT85;21267;51.032;6.998;2022-12-29T02:07:17;11.89;83.75
35085;SHT85;21267;51.032;6.998;2022-12-29T02:09:47;12.06;82.86
35085;SHT85;21267;51.032;6.998;2022-12-29T02:12:16;12.08;82.63
35085;SHT85;21267;51.032;6.998;2022-12-29T02:14:44;12.17;81.99
35085;SHT85;21267;51.032;6.998;2022-12-29T02:20:33;12.11;81.28
35085;SHT85;21267;51.032;6.998;2022-12-29T02:26:12;12.22;80.41
35085;SHT85;21267;51.032;6.998;2022-12-29T02:28:41;12.24;80.25
35085;SHT85;21267;51.032;6.998;2022-12-29T02:31:16;12.37;79.53
35085;SHT85;21267;51.032;6.998;2022-12-29T02:34:13;12.37;79.24
35085;SHT85;21267;51.032;6.998;2022-12-29T02:39:48;12.32;79.53
35085;SHT85;21267;51.032;6.998;2022-12-29T02:48:08;12.18;79.79
35085;SHT85;21267;51.032;6.998;2022-12-29T02:50:43;12.31;79.18
35085;SHT85;21267;51.032;6.998;2022-12-29T02:53:14;12.24;79.77
35085;SHT85;21267;51.032;6.998;2022-12-29T02:55:49;12.31;79.34
35085;SHT85;21267;51.032;6.998;2022-12-29T02:58:21;12.31;79.38
35085;SHT85;21267;51.032;6.998;2022-12-29T03:06:13;12.28;79.70
35085;SHT85;21267;51.032;6.998;2022-12-29T03:11:13;12.21;80.20
35085;SHT85;21267;51.032;6.998;2022-12-29T03:14:09;12.17;80.50
35085;SHT85;21267;51.032;6.998;2022-12-29T03:17:01;12.24;80.64
35085;SHT85;21267;51.032;6.998;2022-12-29T03:19:35;12.17;81.25
35085;SHT85;21267;51.032;6.998;2022-12-29T03:22:05;12.16;81.34
35085;SHT85;21267;51.032;6.998;2022-12-29T03:24:57;12.16;81.76
35085;SHT85;21267;51.032;6.998;2022-12-29T03:27:45;12.04;82.50
35085;SHT85;21267;51.032;6.998;2022-12-29T03:30:13;12.03;82.64
35085;SHT85;21267;51.032;6.998;2022-12-29T03:33:00;11.99;82.78
35085;SHT85;21267;51.032;6.998;2022-12-29T03:35:31;12.04;82.70
35085;SHT85;21267;51.032;6.998;2022-12-29T03:38:06;12.03;83.18
35085;SHT85;21267;51.032;6.998;2022-12-29T03:40:34;11.97;83.42
35085;SHT85;21267;51.032;6.998;2022-12-29T03:43:03;12.10;83.26
35085;SHT85;21267;51.032;6.998;2022-12-29T03:45:29;12.06;83.34
35085;SHT85;21267;51.032;6.998;2022-12-29T03:47:56;12.03;83.53
35085;SHT85;21267;51.032;6.998;2022-12-29T03:50:22;11.97;83.60
35085;SHT85;21267;51.032;6.998;2022-12-29T03:52:49;12.00;83.64
35085;SHT85;21267;51.032;6.998;2022-12-29T03:55:16;12.04;83.60
35085;SHT85;21267;51.032;6.998;2022-12-29T03:57:43;12.10;83.32
35085;SHT85;21267;51.032;6.998;2022-12-29T04:00:10;12.00;83.82
35085;SHT85;21267;51.032;6.998;2022-12-29T04:02:37;11.99;84.09
35085;SHT85;21267;51.032;6.998;2022-12-29T04:05:04;12.14;83.34
35085;SHT85;21267;51.032;6.998;2022-12-29T04:07:31;12.07;83.23
35085;SHT85;21267;51.032;6.998;2022-12-29T04:09:58;12.10;83.11
35085;SHT85;21267;51.032;6.998;2022-12-29T04:12:25;12.04;83.32
35085;SHT85;21267;51.032;6.998;2022-12-29T04:14:51;12.01;83.68
35085;SHT85;21267;51.032;6.998;2022-12-29T04:17:18;12.13;82.91
35085;SHT85;21267;51.032;6.998;2022-12-29T04:19:45;12.13;83.13
35085;SHT85;21267;51.032;6.998;2022-12-29T04:22:11;12.04;83.33
35085;SHT85;21267;51.032;6.998;2022-12-29T04:24:38;12.07;83.37
35085;SHT85;21267;51.032;6.998;2022-12-29T04:27:05;11.94;83.54
35085;SHT85;21267;51.032;6.998;2022-12-29T04:29:31;11.94;83.43
35085;SHT85;21267;51.032;6.998;2022-12-29T04:31:58;11.91;83.56
35085;SHT85;21267;51.032;6.998;2022-12-29T04:34:32;11.94;83.18
35085;SHT85;21267;51.032;6.998;2022-12-29T04:36:59;11.97;83.35
35085;SHT85;21267;51.032;6.998;2022-12-29T04:39:26;11.94;83.45
35085;SHT85;21267;51.032;6.998;2022-12-29T04:41:52;12.00;83.13
35085;SHT85;21267;51.032;6.998;2022-12-29T04:44:19;12.03;82.98
35085;SHT85;21267;51.032;6.998;2022-12-29T04:46:45;12.00;83.21
35085;SHT85;21267;51.032;6.998;2022-12-29T04:49:12;12.07;82.89
35085;SHT85;21267;51.032;6.998;2022-12-29T04:51:39;12.18;82.38
35085;SHT85;21267;51.032;6.998;2022-12-29T04:54:06;12.24;81.98
35085;SHT85;21267;51.032;6.998;2022-12-29T04:56:32;12.22;81.92
35085;SHT85;21267;51.032;6.998;2022-12-29T04:58:59;12.25;81.76
35085;SHT85;21267;51.032;6.998;2022-12-29T05:01:25;12.34;81.21
35085;SHT85;21267;51.032;6.998;2022-12-29T05:03:52;12.34;80.80
35085;SHT85;21267;51.032;6.998;2022-12-29T05:06:19;12.34;80.81
35085;SHT85;21267;51.032;6.998;2022-12-29T05:08:45;12.39;80.41
35085;SHT85;21267;51.032;6.998;2022-12-29T05:11:12;12.38;80.44
35085;SHT85;21267;51.032;6.998;2022-12-29T05:13:39;12.48;79.63
35085;SHT85;21267;51.032;6.998;2022-12-29T05:16:05;12.45;79.70
35085;SHT85;21267;51.032;6.998;2022-12-29T05:18:32;12.49;79.37
35085;SHT85;21267;51.032;6.998;2022-12-29T05:20:59;12.35;79.82
35085;SHT85;21267;51.032;6.998;2022-12-29T05:23:26;12.37;79.85
35085;SHT85;21267;51.032;6.998;2022-12-29T05:25:52;12.38;79.79
35085;SHT85;21267;51.032;6.998;2022-12-29T05:28:19;12.45;79.47
35085;SHT85;21267;51.032;6.998;2022-12-29T05:30:49;12.37;79.77
35085;SHT85;21267;51.032;6.998;2022-12-29T05:33:17;12.37;79.47
35085;SHT85;21267;51.032;6.998;2022-12-29T05:35:44;12.41;79.00
35085;SHT85;21267;51.032;6.998;2022-12-29T05:38:11;12.34;79.29
35085;SHT85;21267;51.032;6.998;2022-12-29T05:40:38;12.54;78.00
35085;SHT85;21267;51.032;6.998;2022-12-29T05:43:05;12.61;77.47
35085;SHT85;21267;51.032;6.998;2022-12-29T05:45:31;12.78;76.49
35085;SHT85;21267;51.032;6.998;2022-12-29T05:47:58;12.78;76.40
35085;SHT85;21267;51.032;6.998;2022-12-29T05:50:24;12.79;76.36
35085;SHT85;21267;51.032;6.998;2022-12-29T05:52:51;12.73;76.26
35085;SHT85;21267;51.032;6.998;2022-12-29T05:55:17;12.69;76.46
35085;SHT85;21267;51.032;6.998;2022-12-29T05:57:44;12.66;76.33
35085;SHT85;21267;51.032;6.998;2022-12-29T06:00:11;12.65;76.01
35085;SHT85;21267;51.032;6.998;2022-12-29T06:02:38;12.57;76.49
35085;SHT85;21267;51.032;6.998;2022-12-29T06:05:05;12.49;76.85
35085;SHT85;21267;51.032;6.998;2022-12-29T06:07:32;12.49;76.84
35085;SHT85;21267;51.032;6.998;2022-12-29T06:09:58;12.48;76.63
35085;SHT85;21267;51.032;6.998;2022-12-29T06:12:25;12.71;75.38
35085;SHT85;21267;51.032;6.998;2022-12-29T06:14:52;12.54;76.41
35085;SHT85;21267;51.032;6.998;2022-12-29T06:17:18;12.47;76.63
35085;SHT85;21267;51.032;6.998;2022-12-29T06:19:45;12.73;75.07
35085;SHT85;21267;51.032;6.998;2022-12-29T06:22:12;12.73;74.70
35085;SHT85;21267;51.032;6.998;2022-12-29T06:24:39;12.80;73.88
35085;SHT85;21267;51.032;6.998;2022-12-29T06:27:06;12.76;74.55
35085;SHT85;21267;51.032;6.998;2022-12-29T06:29:32;12.82;73.70
35085;SHT85;21267;51.032;6.998;2022-12-29T06:31:59;12.82;73.47
35085;SHT85;21267;51.032;6.998;2022-12-29T06:34:26;12.85;73.62
35085;SHT85;21267;51.032;6.998;2022-12-29T06:36:52;12.82;73.55
35085;SHT85;21267;51.032;6.998;2022-12-29T06:39:19;12.71;74.01
35085;SHT85;21267;51.032;6.998;2022-12-29T06:41:45;12.65;74.47
35085;SHT85;21267;51.032;6.998;2022-12-29T06:44:12;12.65;74.54
35085;SHT85;21267;51.032;6.998;2022-12-29T06:46:38;12.64;74.86
35085;SHT85;21267;51.032;6.998;2022-12-29T06:49:05;12.59;75.17
35085;SHT85;21267;51.032;6.998;2022-12-29T06:51:32;12.42;75.65
35085;SHT85;21267;51.032;6.998;2022-12-29T06:53:58;12.44;75.84
35085;SHT85;21267;51.032;6.998;2022-12-29T06:56:25;12.42;76.11
35085;SHT85;21267;51.032;6.998;2022-12-29T06:58:51;12.44;76.40
35085;SHT85;21267;51.032;6.998;2022-12-29T07:01:18;12.44;76.46
35085;SHT85;21267;51.032;6.998;2022-12-29T07:03:45;12.54;76.28
35085;SHT85;21267;51.032;6.998;2022-12-29T07:06:12;12.62;75.63
35085;SHT85;21267;51.032;6.998;2022-12-29T07:08:38;12.59;75.91
35085;SHT85;21267;51.032;6.998;2022-12-29T07:11:05;12.66;75.40
35085;SHT85;21267;51.032;6.998;2022-12-29T07:13:31;12.69;75.30
35085;SHT85;21267;51.032;6.998;2022-12-29T07:15:58;12.69;75.36
35085;SHT85;21267;51.032;6.998;2022-12-29T07:18:25;12.65;75.25
35085;SHT85;21267;51.032;6.998;2022-12-29T07:20:52;12.61;75.63
35085;SHT85;21267;51.032;6.998;2022-12-29T07:23:18;12.52;75.64
35085;SHT85;21267;51.032;6.998;2022-12-29T07:25:45;12.66;75.08
35085;SHT85;21267;51.032;6.998;2022-12-29T07:28:13;12.55;75.74
35085;SHT85;21267;51.032;6.998;2022-12-29T07:33:38;12.57;75.63
35085;SHT85;21267;51.032;6.998;2022-12-29T07:36:06;12.49;76.03
35085;SHT85;21267;51.032;6.998;2022-12-29T07:38:36;12.52;75.95
35085;SHT85;21267;51.032;6.998;2022-12-29T07:41:03;12.49;76.33
35085;SHT85;21267;51.032;6.998;2022-12-29T07:43:31;12.44;76.35
35085;SHT85;21267;51.032;6.998;2022-12-29T07:45:57;12.57;75.54
35085;SHT85;21267;51.032;6.998;2022-12-29T07:48:25;12.52;75.76
35085;SHT85;21267;51.032;6.998;2022-12-29T07:51:01;12.58;75.66
35085;SHT85;21267;51.032;6.998;2022-12-29T07:53:27;12.51;75.94
35085;SHT85;21267;51.032;6.998;2022-12-29T07:55:55;12.54;75.99
35085;SHT85;21267;51.032;6.998;2022-12-29T07:58:22;12.52;76.11
35085;SHT85;21267;51.032;6.998;2022-12-29T08:00:55;12.54;76.24
35085;SHT85;21267;51.032;6.998;2022-12-29T08:03:25;12.48;76.25
35085;SHT85;21267;51.032;6.998;2022-12-29T08:05:52;12.47;76.48
35085;SHT85;21267;51.032;6.998;2022-12-29T08:08:20;12.51;76.35
35085;SHT85;21267;51.032;6.998;2022-12-29T08:10:47;12.47;76.46
35085;SHT85;21267;51.032;6.998;2022-12-29T08:13:14;12.47;75.94
35085;SHT85;21267;51.032;6.998;2022-12-29T08:15:41;12.41;76.23
35085;SHT85;21267;51.032;6.998;2022-12-29T08:18:08;12.42;76.18
35085;SHT85;21267;51.032;6.998;2022-12-29T08:20:35;12.35;76.58
35085;SHT85;21267;51.032;6.998;2022-12-29T08:23:02;12.31;76.44
35085;SHT85;21267;51.032;6.998;2022-12-29T08:25:28;12.34;76.33
35085;SHT85;21267;51.032;6.998;2022-12-29T08:27:55;12.38;75.05
35085;SHT85;21267;51.032;6.998;2022-12-29T08:30:22;12.41;74.11
35085;SHT85;21267;51.032;6.998;2022-12-29T08:32:50;12.29;74.57
35085;SHT85;21267;51.032;6.998;2022-12-29T08:35:16;12.21;75.21
35085;SHT85;21267;51.032;6.998;2022-12-29T08:37:43;12.22;74.72
35085;SHT85;21267;51.032;6.998;2022-12-29T08:40:10;12.27;74.32
35085;SHT85;21267;51.032;6.998;2022-12-29T08:42:37;12.25;74.52
35085;SHT85;21267;51.032;6.998;2022-12-29T08:45:04;12.31;73.93
35085;SHT85;21267;51.032;6.998;2022-12-29T08:47:31;12.37;73.42
35085;SHT85;21267;51.032;6.998;2022-12-29T08:49:57;12.31;74.09
35085;SHT85;21267;51.032;6.998;2022-12-29T08:52:24;12.39;73.96
35085;SHT85;21267;51.032;6.998;2022-12-29T08:54:51;12.35;73.97
35085;SHT85;21267;51.032;6.998;2022-12-29T08:57:18;12.34;72.94
35085;SHT85;21267;51.032;6.998;2022-12-29T08:59:45;12.41;72.63
35085;SHT85;21267;51.032;6.998;2022-12-29T09:02:12;12.38;72.81
35085;SHT85;21267;51.032;6.998;2022-12-29T09:04:45;12.35;73.07
35085;SHT85;21267;51.032;6.998;2022-12-29T09:07:12;12.41;72.61
35085;SHT85;21267;51.032;6.998;2022-12-29T09:09:39;12.38;72.86
35085;SHT85;21267;51.032;6.998;2022-12-29T09:12:05;12.41;73.10
35085;SHT85;21267;51.032;6.998;2022-12-29T09:14:32;12.45;72.51
35085;SHT85;21267;51.032;6.998;2022-12-29T09:16:59;12.45;72.50
35085;SHT85;21267;51.032;6.998;2022-12-29T09:19:44;12.44;72.73
35085;SHT85;21267;51.032;6.998;2022-12-29T09:22:10;12.52;72.14
35085;SHT85;21267;51.032;6.998;2022-12-29T09:24:37;12.42;72.21
35085;SHT85;21267;51.032;6.998;2022-12-29T09:27:03;12.48;71.56
35085;SHT85;21267;51.032;6.998;2022-12-29T09:29:30;12.71;71.00
35085;SHT85;21267;51.032;6.998;2022-12-29T09:31:57;13.03;70.15
35085;SHT85;21267;51.032;6.998;2022-12-29T09:34:24;13.40;68.49
35085;SHT85;21267;51.032;6.998;2022-12-29T09:36:50;13.30;68.81
35085;SHT85;21267;51.032;6.998;2022-12-29T09:39:17;13.04;68.84
35085;SHT85;21267;51.032;6.998;2022-12-29T09:45:00;13.28;68.08
35085;SHT85;21267;51.032;6.998;2022-12-29T09:47:30;13.47;67.62
35085;SHT85;21267;51.032;6.998;2022-12-29T09:50:02;13.23;67.77
35085;SHT85;21267;51.032;6.998;2022-12-29T09:52:34;13.47;67.49
35085;SHT85;21267;51.032;6.998;2022-12-29T09:55:10;13.17;67.70
35085;SHT85;21267;51.032;6.998;2022-12-29T10:00:17;13.47;66.56
35085;SHT85;21267;51.032;6.998;2022-12-29T10:02:49;13.81;65.67
35085;SHT85;21267;51.032;6.998;2022-12-29T10:05:41;13.55;66.39
35085;SHT85;21267;51.032;6.998;2022-12-29T10:13:41;13.75;65.27
35085;SHT85;21267;51.032;6.998;2022-12-29T10:16:16;13.78;65.56
35085;SHT85;21267;51.032;6.998;2022-12-29T10:23:53;13.99;64.28
35085;SHT85;21267;51.032;6.998;2022-12-29T10:26:27;14.02;64.07
35085;SHT85;21267;51.032;6.998;2022-12-29T10:29:03;13.68;63.26
35085;SHT85;21267;51.032;6.998;2022-12-29T10:31:43;13.44;63.95
35085;SHT85;21267;51.032;6.998;2022-12-29T10:34:33;13.40;64.22
35085;SHT85;21267;51.032;6.998;2022-12-29T10:37:05;13.72;64.31
35085;SHT85;21267;51.032;6.998;2022-12-29T10:40:11;13.88;63.86
35085;SHT85;21267;51.032;6.998;2022-12-29T10:42:44;13.46;64.64
35085;SHT85;21267;51.032;6.998;2022-12-29T10:45:13;13.38;64.70
35085;SHT85;21267;51.032;6.998;2022-12-29T10:48:01;13.46;64.52
35085;SHT85;21267;51.032;6.998;2022-12-29T10:50:30;13.34;65.01
35085;SHT85;21267;51.032;6.998;2022-12-29T10:53:02;13.26;65.44
35085;SHT85;21267;51.032;6.998;2022-12-29T10:55:35;13.16;65.13
35085;SHT85;21267;51.032;6.998;2022-12-29T10:58:05;13.16;65.53
35085;SHT85;21267;51.032;6.998;2022-12-29T11:00:33;13.15;65.70
35085;SHT85;21267;51.032;6.998;2022-12-29T11:05:56;13.13;65.46
35085;SHT85;21267;51.032;6.998;2022-12-29T11:08:30;13.68;64.40
35085;SHT85;21267;51.032;6.998;2022-12-29T11:11:09;13.58;65.05
35085;SHT85;21267;51.032;6.998;2022-12-29T11:13:48;13.43;65.55
35085;SHT85;21267;51.032;6.998;2022-12-29T11:16:30;13.27;65.75
35085;SHT85;21267;51.032;6.998;2022-12-29T11:18:58;13.17;66.36
35085;SHT85;21267;51.032;6.998;2022-12-29T11:21:35;13.17;66.28
35085;SHT85;21267;51.032;6.998;2022-12-29T11:26:53;13.27;66.14
35085;SHT85;21267;51.032;6.998;2022-12-29T11:29:28;13.27;65.53
35085;SHT85;21267;51.032;6.998;2022-12-29T11:31:58;13.23;65.76
35085;SHT85;21267;51.032;6.998;2022-12-29T11:34:35;13.13;65.90
35085;SHT85;21267;51.032;6.998;2022-12-29T11:37:26;13.12;66.13
35085;SHT85;21267;51.032;6.998;2022-12-29T11:39:59;13.04;66.36
35085;SHT85;21267;51.032;6.998;2022-12-29T11:42:38;13.12;66.50
35085;SHT85;21267;51.032;6.998;2022-12-29T11:45:15;12.99;66.53
35085;SHT85;21267;51.032;6.998;2022-12-29T11:47:44;12.93;66.99
35085;SHT85;21267;51.032;6.998;2022-12-29T11:50:17;12.79;66.86
35085;SHT85;21267;51.032;6.998;2022-12-29T11:52:45;12.76;67.17
35085;SHT85;21267;51.032;6.998;2022-12-29T11:55:21;12.72;67.32
35085;SHT85;21267;51.032;6.998;2022-12-29T11:57:50;12.64;67.60
35085;SHT85;21267;51.032;6.998;2022-12-29T12:00:19;12.64;67.52
35085;SHT85;21267;51.032;6.998;2022-12-29T12:03:16;12.61;67.80
35085;SHT85;21267;51.032;6.998;2022-12-29T12:05:56;12.57;67.60
35085;SHT85;21267;51.032;6.998;2022-12-29T12:11:25;12.54;67.86
35085;SHT85;21267;51.032;6.998;2022-12-29T12:14:00;12.55;67.97
35085;SHT85;21267;51.032;6.998;2022-12-29T12:16:37;12.51;68.03
35085;SHT85;21267;51.032;6.998;2022-12-29T12:22:31;12.54;67.91
35085;SHT85;21267;51.032;6.998;2022-12-29T12:25:05;12.47;67.73
35085;SHT85;21267;51.032;6.998;2022-12-29T12:27:48;12.49;68.07
35085;SHT85;21267;51.032;6.998;2022-12-29T12:30:19;12.49;68.08
35085;SHT85;21267;51.032;6.998;2022-12-29T12:32:52;12.45;68.17
35085;SHT85;21267;51.032;6.998;2022-12-29T12:41:03;12.47;68.92
35085;SHT85;21267;51.032;6.998;2022-12-29T13:00:13;12.64;69.09
35085;SHT85;21267;51.032;6.998;2022-12-29T13:10:46;12.61;67.22
35085;SHT85;21267;51.032;6.998;2022-12-29T13:13:38;12.49;67.19
35085;SHT85;21267;51.032;6.998;2022-12-29T13:16:28;12.54;67.47
35085;SHT85;21267;51.032;6.998;2022-12-29T13:22:04;12.49;67.16
35085;SHT85;21267;51.032;6.998;2022-12-29T13:24:50;12.38;67.82
35085;SHT85;21267;51.032;6.998;2022-12-29T13:27:37;12.31;68.05
35085;SHT85;21267;51.032;6.998;2022-12-29T13:30:23;12.32;68.62
35085;SHT85;21267;51.032;6.998;2022-12-29T13:36:00;12.42;68.85
35085;SHT85;21267;51.032;6.998;2022-12-29T13:38:41;12.28;68.70
35085;SHT85;21267;51.032;6.998;2022-12-29T13:41:27;12.31;68.94
35085;SHT85;21267;51.032;6.998;2022-12-29T13:43:55;12.22;69.17
35085;SHT85;21267;51.032;6.998;2022-12-29T13:46:40;12.20;69.42
35085;SHT85;21267;51.032;6.998;2022-12-29T13:49:19;12.18;69.51
35085;SHT85;21267;51.032;6.998;2022-12-29T13:51:52;12.18;69.78
35085;SHT85;21267;51.032;6.998;2022-12-29T13:57:19;12.11;70.17
35085;SHT85;21267;51.032;6.998;2022-12-29T14:00:31;12.08;70.26
35085;SHT85;21267;51.032;6.998;2022-12-29T14:06:10;11.93;68.91
35085;SHT85;21267;51.032;6.998;2022-12-29T14:08:38;11.97;69.33
35085;SHT85;21267;51.032;6.998;2022-12-29T14:11:09;11.89;69.49
35085;SHT85;21267;51.032;6.998;2022-12-29T14:13:45;11.87;69.49
35085;SHT85;21267;51.032;6.998;2022-12-29T14:16:30;11.87;69.53
35085;SHT85;21267;51.032;6.998;2022-12-29T14:19:17;11.82;69.41
35085;SHT85;21267;51.032;6.998;2022-12-29T14:21:52;11.82;69.02
35085;SHT85;21267;51.032;6.998;2022-12-29T14:24:27;11.75;69.20
35085;SHT85;21267;51.032;6.998;2022-12-29T14:26:54;11.76;69.52
35085;SHT85;21267;51.032;6.998;2022-12-29T14:31:47;11.75;69.02
35085;SHT85;21267;51.032;6.998;2022-12-29T14:37:02;11.75;69.57
35085;SHT85;21267;51.032;6.998;2022-12-29T14:39:42;11.82;69.38
35085;SHT85;21267;51.032;6.998;2022-12-29T14:44:50;11.79;69.93
35085;SHT85;21267;51.032;6.998;2022-12-29T14:50:18;11.83;69.96
35085;SHT85;21267;51.032;6.998;2022-12-29T14:58:20;11.86;70.14
35085;SHT85;21267;51.032;6.998;2022-12-29T15:00:47;11.83;70.19
35085;SHT85;21267;51.032;6.998;2022-12-29T15:03:36;11.82;69.37
35085;SHT85;21267;51.032;6.998;2022-12-29T15:06:07;11.86;69.58
35085;SHT85;21267;51.032;6.998;2022-12-29T15:11:15;11.71;69.90
35085;SHT85;21267;51.032;6.998;2022-12-29T15:13:43;11.69;70.54
35085;SHT85;21267;51.032;6.998;2022-12-29T15:16:25;11.60;71.93
35085;SHT85;21267;51.032;6.998;2022-12-29T15:18:53;11.59;72.73
35085;SHT85;21267;51.032;6.998;2022-12-29T15:21:30;11.53;72.85
35085;SHT85;21267;51.032;6.998;2022-12-29T15:23:58;11.50;72.55
35085;SHT85;21267;51.032;6.998;2022-12-29T15:26:45;11.46;72.70
35085;SHT85;21267;51.032;6.998;2022-12-29T15:29:50;11.45;72.28
35085;SHT85;21267;51.032;6.998;2022-12-29T15:32:24;11.39;72.31
35085;SHT85;21267;51.032;6.998;2022-12-29T15:34:56;11.43;72.04
35085;SHT85;21267;51.032;6.998;2022-12-29T15:39:54;11.43;71.61
35085;SHT85;21267;51.032;6.998;2022-12-29T15:45:19;11.35;71.40
35085;SHT85;21267;51.032;6.998;2022-12-29T15:47:47;11.38;71.86
35085;SHT85;21267;51.032;6.998;2022-12-29T15:50:28;11.34;71.91
35085;SHT85;21267;51.032;6.998;2022-12-29T15:52:55;11.31;72.09
35085;SHT85;21267;51.032;6.998;2022-12-29T15:55:33;11.32;72.31
35085;SHT85;21267;51.032;6.998;2022-12-29T15:58:03;11.27;72.22
35085;SHT85;21267;51.032;6.998;2022-12-29T16:00:32;11.21;71.94
35085;SHT85;21267;51.032;6.998;2022-12-29T16:03:01;11.17;72.42
35085;SHT85;21267;51.032;6.998;2022-12-29T16:05:38;11.07;72.72
35085;SHT85;21267;51.032;6.998;2022-12-29T16:08:31;11.00;72.43
35085;SHT85;21267;51.032;6.998;2022-12-29T16:11:04;10.90;73.10
35085;SHT85;21267;51.032;6.998;2022-12-29T16:13:34;10.88;73.15
35085;SHT85;21267;51.032;6.998;2022-12-29T16:16:16;10.83;72.69
35085;SHT85;21267;51.032;6.998;2022-12-29T16:18:45;10.87;72.54
35085;SHT85;21267;51.032;6.998;2022-12-29T16:21:28;10.73;73.10
35085;SHT85;21267;51.032;6.998;2022-12-29T16:24:02;10.69;72.79
35085;SHT85;21267;51.032;6.998;2022-12-29T16:26:31;10.69;72.90
35085;SHT85;21267;51.032;6.998;2022-12-29T16:28:59;10.76;72.42
35085;SHT85;21267;51.032;6.998;2022-12-29T16:31:36;10.73;72.53
35085;SHT85;21267;51.032;6.998;2022-12-29T16:34:12;10.71;72.68
35085;SHT85;21267;51.032;6.998;2022-12-29T16:36:51;10.53;73.21
35085;SHT85;21267;51.032;6.998;2022-12-29T16:39:20;10.38;73.31
35085;SHT85;21267;51.032;6.998;2022-12-29T16:41:49;10.26;73.71
35085;SHT85;21267;51.032;6.998;2022-12-29T16:44:24;10.29;73.61
35085;SHT85;21267;51.032;6.998;2022-12-29T16:49:44;10.30;73.37
35085;SHT85;21267;51.032;6.998;2022-12-29T16:52:16;10.28;73.54
35085;SHT85;21267;51.032;6.998;2022-12-29T16:54:57;10.16;74.14
35085;SHT85;21267;51.032;6.998;2022-12-29T16:57:29;10.25;74.17
35085;SHT85;21267;51.032;6.998;2022-12-29T17:00:02;10.28;74.21
35085;SHT85;21267;51.032;6.998;2022-12-29T17:02:30;10.48;73.84
35085;SHT85;21267;51.032;6.998;2022-12-29T17:04:59;10.39;74.15
35085;SHT85;21267;51.032;6.998;2022-12-29T17:07:27;10.30;74.30
35085;SHT85;21267;51.032;6.998;2022-12-29T17:09:54;10.21;74.62
35085;SHT85;21267;51.032;6.998;2022-12-29T17:12:27;10.08;75.11
35085;SHT85;21267;51.032;6.998;2022-12-29T17:14:59;10.12;75.33
35085;SHT85;21267;51.032;6.998;2022-12-29T17:17:36;10.13;75.32
35085;SHT85;21267;51.032;6.998;2022-12-29T17:22:40;10.19;75.29
35085;SHT85;21267;51.032;6.998;2022-12-29T17:25:12;10.16;75.51
35085;SHT85;21267;51.032;6.998;2022-12-29T17:30:31;10.08;75.71
35085;SHT85;21267;51.032;6.998;2022-12-29T17:33:01;10.06;75.99
35085;SHT85;21267;51.032;6.998;2022-12-29T17:35:28;10.06;76.09
35085;SHT85;21267;51.032;6.998;2022-12-29T17:37:55;10.05;75.81
35085;SHT85;21267;51.032;6.998;2022-12-29T17:40:26;10.06;75.89
35085;SHT85;21267;51.032;6.998;2022-12-29T17:42:55;10.13;75.22
35085;SHT85;21267;51.032;6.998;2022-12-29T17:45:24;10.15;75.49
35085;SHT85;21267;51.032;6.998;2022-12-29T17:47:51;10.23;74.93
35085;SHT85;21267;51.032;6.998;2022-12-29T17:50:21;10.15;75.07
35085;SHT85;21267;51.032;6.998;2022-12-29T17:52:55;10.06;75.47
35085;SHT85;21267;51.032;6.998;2022-12-29T17:55:27;10.05;75.33
35085;SHT85;21267;51.032;6.998;2022-12-29T17:58:21;9.99;75.56
35085;SHT85;21267;51.032;6.998;2022-12-29T18:00:51;9.92;75.76
35085;SHT85;21267;51.032;6.998;2022-12-29T18:03:23;9.84;75.91
35085;SHT85;21267;51.032;6.998;2022-12-29T18:05:52;9.85;75.91
35085;SHT85;21267;51.032;6.998;2022-12-29T18:08:18;9.87;75.89
35085;SHT85;21267;51.032;6.998;2022-12-29T18:10:45;9.92;75.81
35085;SHT85;21267;51.032;6.998;2022-12-29T18:13:23;9.85;76.13
35085;SHT85;21267;51.032;6.998;2022-12-29T18:15:55;9.88;76.15
35085;SHT85;21267;51.032;6.998;2022-12-29T18:18:24;9.88;76.51